Friday, November 24, 2017, 12:42 AM EST
Back to Local

KBED, Bedford Hanscom Field

Location: Concord, MA, United States Lat: 42.467
Local Time: 12:42 AM EST ( 5:42 GMT) Lon: -71.3
Time Zone: US/Eastern Elev: 134 ft

Show me the last for .
Show Decoded

2017-11-23 23:56 METAR KBED 240456Z AUTO 24003KT 10SM BKN100 M02/M07 A2998 RMK AO2 SLP167
                 T10221067 400611044 =
2017-11-23 22:56 METAR KBED 240356Z AUTO 00000KT 10SM BKN100 M03/M06 A2997 RMK AO2 SLP165
                 T10331056 =
2017-11-23 21:56 METAR KBED 240256Z 00000KT 10SM FEW020 FEW200 M04/M06 A2997 RMK AO2 SLP165
                 T10391061 51002 =
2017-11-23 20:56 METAR KBED 240156Z 34003KT 10SM CLR M03/M06 A2997 RMK AO2 SLP165 T10331056 =
2017-11-23 19:56 METAR KBED 240056Z 00000KT 10SM SCT200 M02/M06 A2997 RMK AO2 SLP165 T10171056 =
2017-11-23 18:56 METAR KBED 232356Z 00000KT 10SM CLR M02/M06 A2996 RMK AO2 SLP163 T10171056 10061
                 21017 50003 =
2017-11-23 17:56 METAR KBED 232256Z 00000KT 10SM SCT200 00/M07 A2997 RMK AO2 SLP165 T00001072 =
2017-11-23 16:56 METAR KBED 232156Z 00000KT 10SM SCT200 01/M08 A2996 RMK AO2 SLP161 T00111083 =
2017-11-23 15:56 METAR KBED 232056Z 28004KT 10SM CLR 04/M10 A2996 RMK AO2 SLP159 T00391100 56006
                 =
2017-11-23 14:56 METAR KBED 231956Z 28004KT 10SM SCT250 06/M09 A2996 RMK AO2 SLP159 T00561094 =
2017-11-23 13:56 METAR KBED 231856Z 30005KT 10SM SCT250 06/M09 A2996 RMK AO2 SLP161 T00561094 =
2017-11-23 12:56 METAR KBED 231756Z 27006KT 10SM CLR 05/M09 A2997 RMK AO2 SLP165 T00501089 10050
                 21028 58013 =
2017-11-23 11:56 METAR KBED 231656Z 31008G14KT 10SM CLR 04/M08 A2999 RMK AO2 SLP170 T00441083 =
2017-11-23 10:56 METAR KBED 231556Z 30009KT 10SM CLR 03/M09 A3001 RMK AO2 SLP176 T00331089 =
2017-11-23 09:56 METAR KBED 231456Z 32008KT 10SM CLR 02/M08 A3001 RMK AO2 SLP178 T00171083 58003
                 =
2017-11-23 08:56 METAR KBED 231356Z 28006KT 10SM CLR 01/M07 A3002 RMK AO2 SLP182 T00061072 =
2017-11-23 07:56 METAR KBED 231256Z 30005KT 10SM CLR M01/M07 A3002 RMK AO2 SLP181 T10061072 =
2017-11-23 06:56 METAR KBED 231156Z AUTO 29004KT 10SM CLR M03/M07 A3002 RMK AO2 SLP182 70077
                 T10281067 10011 21044 51015 =
2017-11-23 05:56 METAR KBED 231056Z AUTO 27004KT 10SM CLR M02/M07 A3002 RMK AO2 SLP180 T10171072
                 =
2017-11-23 04:56 METAR KBED 230956Z AUTO 29009KT 10SM CLR M01/M07 A3000 RMK AO2 SLP174 T10061067
                 =
2017-11-23 03:56 METAR KBED 230856Z AUTO 29009KT 10SM CLR M01/M08 A2998 RMK AO2 SLP167 T10061083
                 51010 =
2017-11-23 02:56 METAR KBED 230756Z AUTO 30012KT 10SM CLR 00/M07 A2997 RMK AO2 SLP163 T00001067 =
2017-11-23 01:56 METAR KBED 230656Z AUTO 29009KT 10SM CLR 00/M06 A2996 RMK AO2 SLP161 T00001061 =
2017-11-23 00:56 METAR KBED 230556Z AUTO 30012KT 10SM CLR 02/M06 A2995 RMK AO2 SLP155 T00171061
                 10039 20011 51019 =

Support USWX by starting your Amazon purchase here.